Main page
METAR-TAF:

METAR-TAF

Airports :

Dillant–Hopkins Airport

Keene, New Hampshire, United States

latitude: 42-54N, longitude: 072-16W, elevation: 489 ft

Current weather observation

The report was made 47 minutes ago, at 21:56 UTC
Wind 5 mph from the North/Northwest
Temperature 27°F
Humidity 54%
Pressure 30.05 in. Hg
Visibility: 10 miles
Clear sky

METAR: KEEN 252156Z AUTO 34004KT 10SM CLR M03/M11 A3005 RMK AO2 SLP188 T10281106 FZRANO $

Time: 17:43 (22:43 UTC)


TAF: missing

Weather observations and forecasts of more than 4000 airports (METAR and TAF reports).

The available stations are represented by yellow and red dots on the map.

Hover mouse over dot to see the name of the station.

Then click to see weather observations and forecasts.

To change the map : click on the green buttons with a black cross to zoom in, on the green button with a dash to zoom out, or on the green arrows for adjacent maps.


METAR-TAF: